Time;durP1;ratioP1;P1;durP2;ratioP2;P2;SDS_P1;SDS_P2;PMS_P1;PMS_P2;Temp;Humidity;BMP_temperature;BMP_pressure;BME280_temperature;BME280_humidity;BME280_pressure;Samples;Min_cycle;Max_cycle;Signal;HPM_P1;HPM_P2
2022/06/08 00:01:37;;;;;;;3.20;0.60;;;16.60;57.90;;;;;;4991329;28;20192;-54
2022/06/08 00:04:09;;;;;;;2.42;0.75;;;16.70;57.80;;;;;;4991717;28;20284;-53
2022/06/08 00:06:39;;;;;;;1.20;0.70;;;16.70;57.70;;;;;;4991418;28;20225;-54
2022/06/08 00:09:10;;;;;;;2.47;0.60;;;16.70;57.60;;;;;;4990926;28;20562;-54
2022/06/08 00:11:41;;;;;;;1.17;0.40;;;16.70;57.50;;;;;;4990892;28;20225;-53
2022/06/08 00:14:14;;;;;;;1.00;0.40;;;16.80;57.50;;;;;;4991604;28;20197;-53
2022/06/08 00:16:45;;;;;;;0.45;0.43;;;16.80;57.40;;;;;;4991290;28;20252;-53
2022/06/08 00:19:16;;;;;;;1.08;0.40;;;16.80;57.30;;;;;;4991503;28;20220;-51
2022/06/08 00:21:46;;;;;;;1.75;0.47;;;16.80;57.20;;;;;;4991543;28;20201;-52
2022/06/08 00:24:19;;;;;;;0.70;0.47;;;16.90;57.20;;;;;;4991651;28;20204;-53
2022/06/08 00:26:49;;;;;;;0.38;0.32;;;16.90;57.10;;;;;;4991773;28;20316;-53
2022/06/08 00:29:22;;;;;;;0.70;0.43;;;16.90;57.00;;;;;;4991679;28;20198;-55
2022/06/08 00:31:53;;;;;;;1.50;0.47;;;16.90;57.00;;;;;;4991779;28;20225;-56
2022/06/08 00:34:23;;;;;;;0.98;0.43;;;17.00;56.90;;;;;;4991364;28;20282;-57
2022/06/08 00:36:54;;;;;;;1.67;0.47;;;17.00;56.80;;;;;;4990644;28;20729;-56
2022/06/08 00:39:24;;;;;;;0.80;0.50;;;17.00;57.10;;;;;;4985455;28;20200;-54
2022/06/08 00:41:59;;;;;;;1.52;0.40;;;17.00;57.30;;;;;;4990574;28;20198;-54
2022/06/08 00:44:36;;;;;;;0.32;0.30;;;17.10;57.30;;;;;;4991876;28;20205;-54
2022/06/08 00:47:08;;;;;;;1.25;0.50;;;17.10;57.10;;;;;;4976278;28;20222;-54
2022/06/08 00:49:42;;;;;;;1.85;0.60;;;17.10;56.80;;;;;;4970554;28;20544;-54
2022/06/08 00:52:14;;;;;;;1.05;0.40;;;17.10;56.70;;;;;;4972291;28;20582;-54
2022/06/08 00:54:48;;;;;;;1.30;0.45;;;17.10;56.60;;;;;;4975240;28;20202;-54
2022/06/08 00:57:21;;;;;;;1.52;0.47;;;17.10;56.40;;;;;;4981033;28;20222;-55
2022/06/08 00:59:59;;;;;;;1.00;0.40;;;17.20;56.40;;;;;;4994181;28;20198;-54
2022/06/08 01:02:31;;;;;;;2.30;0.40;;;17.20;56.40;;;;;;4993720;28;20244;-51
2022/06/08 01:05:22;;;;;;;0.45;0.40;;;17.20;56.30;;;;;;4994131;28;20233;-54
2022/06/08 01:07:55;;;;;;;0.40;0.30;;;17.20;56.20;;;;;;4994656;28;20233;-54
2022/06/08 01:10:28;;;;;;;0.40;0.30;;;17.20;56.10;;;;;;4993176;28;20693;-55
2022/06/08 01:13:04;;;;;;;0.88;0.40;;;17.30;56.00;;;;;;4994449;28;20204;-56
2022/06/08 01:15:38;;;;;;;0.70;0.40;;;17.30;55.80;;;;;;4993538;28;20201;-54
2022/06/08 01:18:10;;;;;;;1.63;0.50;;;17.30;55.70;;;;;;4993739;28;20722;-54
2022/06/08 01:20:48;;;;;;;0.55;0.30;;;17.30;55.70;;;;;;4993498;28;20194;-54
2022/06/08 01:23:21;;;;;;;0.90;0.32;;;17.30;55.60;;;;;;4993481;28;20922;-53
2022/06/08 01:26:16;;;;;;;1.05;0.40;;;17.30;55.60;;;;;;4993262;28;20672;-53
2022/06/08 01:28:54;;;;;;;0.40;0.40;;;17.30;56.00;;;;;;4991567;28;20237;-54
2022/06/08 01:31:48;;;;;;;1.25;0.55;;;17.40;55.30;;;;;;4993233;28;20224;-53
2022/06/08 01:34:25;;;;;;;1.75;0.60;;;17.40;55.20;;;;;;4994350;28;20198;-51
2022/06/08 01:37:19;;;;;;;0.30;0.30;;;17.40;55.10;;;;;;4993396;28;20217;-53
2022/06/08 01:40:08;;;;;;;2.35;0.43;;;17.40;55.00;;;;;;4993019;28;20563;-56
2022/06/08 01:42:48;;;;;;;1.77;0.40;;;17.40;55.00;;;;;;4993441;28;20205;-54
2022/06/08 01:45:36;;;;;;;1.02;0.45;;;17.40;54.90;;;;;;4993514;28;20204;-54
2022/06/08 01:48:28;;;;;;;1.52;0.60;;;17.40;54.90;;;;;;4980698;28;20217;-53
2022/06/08 01:51:06;;;;;;;0.50;0.43;;;17.40;54.90;;;;;;4973587;28;20269;-54
2022/06/08 01:53:48;;;;;;;0.88;0.63;;;17.40;54.90;;;;;;4973818;28;20201;-54
2022/06/08 01:56:26;;;;;;;0.55;0.40;;;17.40;54.90;;;;;;4973987;28;20651;-56
2022/06/08 01:59:04;;;;;;;0.43;0.35;;;17.40;54.90;;;;;;4973691;28;20201;-54
2022/06/08 02:01:43;;;;;;;0.93;0.50;;;17.40;54.90;;;;;;4974429;28;20815;-53
2022/06/08 02:04:21;;;;;;;0.57;0.50;;;17.40;54.90;;;;;;4972788;28;20213;-55
2022/06/08 02:06:59;;;;;;;1.20;0.60;;;17.50;54.90;;;;;;4973744;28;20728;-53
2022/06/08 02:09:36;;;;;;;0.77;0.30;;;17.50;55.00;;;;;;4974024;28;20639;-54
2022/06/08 02:12:11;;;;;;;0.50;0.30;;;17.50;55.10;;;;;;4973596;28;20230;-54
2022/06/08 02:14:46;;;;;;;0.98;0.50;;;17.50;55.00;;;;;;4973616;28;20575;-52
2022/06/08 02:17:25;;;;;;;0.68;0.52;;;17.50;55.00;;;;;;4973910;28;20229;-53
2022/06/08 02:20:01;;;;;;;0.85;0.50;;;17.50;54.90;;;;;;4973852;28;20209;-54
2022/06/08 02:22:39;;;;;;;0.63;0.47;;;17.50;54.90;;;;;;4974362;28;20198;-54
2022/06/08 02:25:13;;;;;;;0.80;0.50;;;17.50;54.90;;;;;;4973295;28;20540;-54
2022/06/08 02:27:50;;;;;;;0.50;0.40;;;17.50;54.90;;;;;;4973089;28;20230;-55
2022/06/08 02:30:24;;;;;;;0.50;0.32;;;17.50;54.80;;;;;;4973834;28;20206;-54
2022/06/08 02:35:51;;;;;;;1.25;0.30;;;17.50;54.90;;;;;;4972972;28;20200;-54
2022/06/08 02:38:26;;;;;;;0.30;0.30;;;17.50;54.90;;;;;;4973263;28;20221;-54
2022/06/08 02:41:01;;;;;;;0.60;0.20;;;17.50;54.80;;;;;;4973016;28;20237;-54
2022/06/08 02:43:38;;;;;;;0.60;0.40;;;17.50;54.90;;;;;;4978781;28;20198;-55
2022/06/08 02:46:12;;;;;;;0.40;0.40;;;17.50;54.80;;;;;;4992377;28;20201;-55
2022/06/08 02:48:43;;;;;;;1.23;0.35;;;17.50;54.70;;;;;;4992250;28;20253;-55
2022/06/08 02:51:14;;;;;;;0.50;0.35;;;17.60;54.70;;;;;;4993150;28;20229;-53
2022/06/08 02:53:53;;;;;;;0.40;0.40;;;17.60;54.70;;;;;;4992247;28;20197;-53
2022/06/08 02:56:33;;;;;;;0.43;0.30;;;17.60;54.60;;;;;;4992061;28;20201;-54
2022/06/08 02:59:11;;;;;;;0.80;0.43;;;17.60;54.60;;;;;;4992170;28;20209;-54
2022/06/08 03:01:47;;;;;;;1.05;0.50;;;17.60;54.60;;;;;;4992135;28;20599;-53
2022/06/08 03:04:20;;;;;;;1.30;0.43;;;17.60;54.60;;;;;;4992862;28;20559;-54
2022/06/08 03:06:56;;;;;;;1.10;0.40;;;17.60;54.60;;;;;;4992625;28;20720;-53
2022/06/08 03:09:27;;;;;;;0.32;0.32;;;17.60;54.50;;;;;;4992088;28;20204;-55
2022/06/08 03:12:03;;;;;;;0.73;0.43;;;17.60;54.50;;;;;;4992227;28;20225;-55
2022/06/08 03:14:39;;;;;;;0.40;0.40;;;17.60;54.40;;;;;;4991336;28;20198;-57
2022/06/08 03:17:11;;;;;;;0.73;0.40;;;17.60;54.40;;;;;;4991925;28;20231;-55
2022/06/08 03:19:41;;;;;;;1.85;0.60;;;17.70;54.40;;;;;;4991854;28;20204;-54
2022/06/08 03:22:14;;;;;;;0.50;0.30;;;17.70;54.40;;;;;;4991269;28;20201;-54
2022/06/08 03:24:45;;;;;;;0.50;0.43;;;17.70;54.30;;;;;;4992496;28;20276;-53
2022/06/08 03:27:16;;;;;;;1.20;0.20;;;17.70;54.30;;;;;;4990971;28;20209;-56
2022/06/08 03:29:49;;;;;;;1.48;0.75;;;17.80;54.30;;;;;;4989016;28;20575;-53
2022/06/08 03:32:20;;;;;;;0.80;0.40;;;17.70;54.20;;;;;;4972380;28;20237;-51
2022/06/08 03:34:50;;;;;;;0.50;0.30;;;17.70;54.30;;;;;;4986882;28;20333;-54
2022/06/08 03:37:21;;;;;;;0.75;0.30;;;17.80;54.30;;;;;;4991634;28;20221;-55
2022/06/08 03:39:52;;;;;;;1.35;0.45;;;17.80;54.50;;;;;;4991779;28;20212;-54
2022/06/08 03:42:23;;;;;;;0.30;0.30;;;17.80;54.60;;;;;;4985661;28;20199;-55
2022/06/08 03:44:55;;;;;;;1.25;0.38;;;17.90;54.70;;;;;;4972546;28;20205;-54
2022/06/08 03:47:29;;;;;;;3.60;0.50;;;17.90;54.70;;;;;;4972237;28;20260;-51
2022/06/08 03:50:03;;;;;;;0.90;0.55;;;17.90;54.70;;;;;;4971401;28;20202;-55
2022/06/08 03:52:37;;;;;;;0.47;0.32;;;17.90;54.70;;;;;;4971940;28;20229;-55
2022/06/08 03:55:10;;;;;;;0.35;0.25;;;18.00;54.70;;;;;;4971635;28;20201;-56
2022/06/08 03:57:44;;;;;;;0.25;0.22;;;18.00;54.60;;;;;;4971480;28;20218;-54
2022/06/08 04:00:19;;;;;;;1.08;0.32;;;18.00;54.60;;;;;;4972529;28;20584;-53
2022/06/08 04:02:51;;;;;;;1.42;0.47;;;18.00;54.50;;;;;;4972153;28;20194;-51
2022/06/08 04:05:23;;;;;;;0.30;0.30;;;18.00;54.40;;;;;;4971893;28;20206;-54
2022/06/08 04:07:53;;;;;;;0.80;0.40;;;18.00;54.40;;;;;;4971414;28;20245;-55
2022/06/08 04:10:24;;;;;;;0.68;0.40;;;18.00;54.40;;;;;;4971754;28;20210;-54
2022/06/08 04:12:55;;;;;;;0.50;0.30;;;18.10;54.50;;;;;;4971801;28;20324;-54
2022/06/08 04:15:46;;;;;;;0.47;0.20;;;18.10;54.30;;;;;;4971977;28;20194;-52
2022/06/08 04:18:19;;;;;;;0.55;0.40;;;18.10;54.40;;;;;;4971702;28;20280;-52
2022/06/08 04:20:54;;;;;;;0.50;0.30;;;18.10;54.30;;;;;;4971743;28;20201;-53
2022/06/08 04:23:27;;;;;;;1.85;0.38;;;18.10;54.30;;;;;;4971623;28;20693;-55
2022/06/08 04:25:58;;;;;;;2.58;0.50;;;18.10;54.20;;;;;;4971838;28;20221;-53
2022/06/08 04:28:29;;;;;;;1.25;0.47;;;18.10;54.30;;;;;;4975681;28;20221;-53
2022/06/08 04:31:02;;;;;;;0.60;0.32;;;18.10;54.30;;;;;;4987563;28;20197;-52
2022/06/08 04:33:33;;;;;;;0.85;0.50;;;18.10;54.20;;;;;;4991041;28;20210;-52
2022/06/08 04:36:04;;;;;;;0.60;0.40;;;18.10;54.30;;;;;;4975734;28;20193;-56
2022/06/08 04:38:35;;;;;;;0.28;0.28;;;18.10;54.20;;;;;;4976167;28;20226;-53
2022/06/08 04:41:07;;;;;;;0.50;0.40;;;18.10;54.20;;;;;;4975367;28;20202;-51
2022/06/08 04:43:38;;;;;;;0.85;0.50;;;18.10;54.20;;;;;;4976047;28;20221;-52
2022/06/08 04:46:15;;;;;;;1.10;0.57;;;18.10;54.30;;;;;;4975227;28;20674;-54
2022/06/08 04:48:46;;;;;;;0.30;0.30;;;18.10;54.90;;;;;;4985682;28;20209;-54
2022/06/08 04:51:18;;;;;;;0.93;0.50;;;18.10;54.40;;;;;;4995022;28;20576;-53
2022/06/08 04:53:49;;;;;;;0.77;0.50;;;18.10;54.50;;;;;;4994905;28;20564;-51
2022/06/08 04:56:20;;;;;;;0.98;0.65;;;18.10;54.40;;;;;;4994786;28;20199;-52
2022/06/08 04:58:53;;;;;;;0.75;0.30;;;18.10;54.30;;;;;;4994184;28;20210;-50
2022/06/08 05:01:25;;;;;;;0.73;0.52;;;18.10;54.30;;;;;;4994772;28;20197;-53
2022/06/08 05:03:56;;;;;;;0.55;0.40;;;18.10;54.30;;;;;;4994833;28;20673;-52
2022/06/08 05:06:27;;;;;;;1.00;0.65;;;18.10;54.20;;;;;;4994815;28;20198;-55
2022/06/08 05:08:58;;;;;;;0.50;0.40;;;18.10;54.20;;;;;;4993848;28;20197;-51
2022/06/08 05:11:29;;;;;;;0.63;0.50;;;18.10;54.20;;;;;;4993798;28;20201;-53
2022/06/08 05:14:00;;;;;;;1.42;0.60;;;18.10;54.20;;;;;;4994028;28;20201;-53
2022/06/08 05:16:32;;;;;;;0.93;0.50;;;18.10;54.20;;;;;;4994529;28;20201;-52
2022/06/08 05:19:03;;;;;;;0.60;0.60;;;18.10;54.10;;;;;;4994157;28;20202;-54
2022/06/08 05:21:34;;;;;;;1.35;0.70;;;18.10;54.10;;;;;;4993386;28;20192;-56
2022/06/08 05:24:04;;;;;;;0.47;0.47;;;18.10;54.10;;;;;;4993415;28;20198;-55
2022/06/08 05:26:36;;;;;;;0.63;0.60;;;18.10;54.00;;;;;;4993379;28;20698;-52
2022/06/08 05:29:07;;;;;;;0.60;0.50;;;18.10;54.00;;;;;;4993963;28;20201;-50
2022/06/08 05:31:39;;;;;;;0.77;0.47;;;18.10;54.10;;;;;;4983872;28;20287;-53
2022/06/08 05:34:11;;;;;;;0.50;0.50;;;18.10;54.10;;;;;;4977112;28;20565;-53
2022/06/08 05:36:42;;;;;;;0.70;0.55;;;18.10;54.20;;;;;;4997775;28;20225;-53
2022/06/08 05:39:13;;;;;;;0.57;0.43;;;18.00;54.20;;;;;;5005233;28;20209;-52
2022/06/08 05:41:43;;;;;;;0.68;0.50;;;18.00;54.20;;;;;;4981808;28;20198;-53
2022/06/08 05:44:15;;;;;;;0.50;0.50;;;18.00;54.20;;;;;;4994297;28;20197;-51
2022/06/08 05:46:48;;;;;;;0.65;0.45;;;18.00;54.20;;;;;;4991271;28;20620;-52
2022/06/08 05:49:19;;;;;;;1.00;0.60;;;18.00;54.30;;;;;;4993760;28;20201;-51
2022/06/08 05:51:49;;;;;;;0.60;0.47;;;18.00;54.30;;;;;;4994496;28;20212;-56
2022/06/08 05:54:20;;;;;;;0.68;0.50;;;18.00;54.30;;;;;;4994076;28;20568;-52
2022/06/08 05:56:51;;;;;;;0.68;0.68;;;18.00;54.30;;;;;;4989843;28;20214;-53
2022/06/08 05:59:21;;;;;;;0.50;0.50;;;17.90;54.40;;;;;;4989859;28;20203;-53
2022/06/08 06:01:54;;;;;;;0.45;0.45;;;18.00;54.30;;;;;;4992858;28;20634;-53
2022/06/08 06:04:25;;;;;;;0.75;0.60;;;17.90;54.30;;;;;;4992798;28;20193;-53
2022/06/08 06:06:56;;;;;;;0.60;0.50;;;17.90;54.30;;;;;;4992511;28;20229;-53
2022/06/08 06:09:27;;;;;;;1.20;0.80;;;17.90;54.30;;;;;;4992452;28;20205;-52
2022/06/08 06:11:58;;;;;;;0.95;0.70;;;17.90;54.30;;;;;;4992793;28;20198;-52
2022/06/08 06:14:28;;;;;;;0.85;0.60;;;17.90;54.30;;;;;;4994036;28;20205;-50
2022/06/08 06:17:01;;;;;;;0.60;0.60;;;17.90;54.30;;;;;;4993038;28;20232;-54
2022/06/08 06:19:32;;;;;;;1.00;0.60;;;17.90;54.30;;;;;;4993150;28;20193;-53
2022/06/08 06:22:04;;;;;;;0.70;0.60;;;17.90;54.40;;;;;;4992171;28;20201;-53
2022/06/08 06:24:35;;;;;;;0.68;0.68;;;17.90;54.40;;;;;;4992669;28;20200;-56
2022/06/08 06:27:06;;;;;;;0.60;0.60;;;17.90;54.40;;;;;;4991981;28;20224;-51
2022/06/08 06:29:37;;;;;;;0.80;0.80;;;17.80;54.30;;;;;;4992535;28;20200;-53
2022/06/08 06:32:14;;;;;;;0.70;0.60;;;17.80;54.30;;;;;;4992805;28;20232;-51
2022/06/08 06:34:45;;;;;;;1.10;0.85;;;17.80;54.40;;;;;;4992529;28;20197;-54
2022/06/08 06:37:16;;;;;;;0.60;0.60;;;17.80;54.40;;;;;;4973942;28;20222;-55
2022/06/08 06:39:47;;;;;;;0.55;0.55;;;17.80;54.50;;;;;;4972701;28;20832;-55
2022/06/08 06:42:19;;;;;;;0.50;0.50;;;17.80;54.40;;;;;;4973631;28;20678;-52
2022/06/08 06:44:51;;;;;;;0.98;0.68;;;17.80;54.50;;;;;;4973177;28;20194;-54
2022/06/08 06:47:23;;;;;;;0.77;0.57;;;17.80;54.40;;;;;;4973916;28;20241;-55
2022/06/08 06:49:54;;;;;;;0.68;0.60;;;17.80;54.50;;;;;;4972181;28;20202;-56
2022/06/08 06:52:25;;;;;;;0.73;0.57;;;17.80;54.40;;;;;;4972820;28;20709;-55
2022/06/08 06:54:55;;;;;;;0.60;0.60;;;17.70;54.30;;;;;;4973150;28;20202;-54
2022/06/08 06:57:26;;;;;;;0.50;0.50;;;17.70;54.30;;;;;;4972533;28;20226;-55
2022/06/08 06:59:57;;;;;;;0.70;0.63;;;17.70;54.30;;;;;;4973383;28;20202;-54
2022/06/08 07:02:29;;;;;;;0.80;0.60;;;17.70;54.30;;;;;;4972167;28;20321;-54
2022/06/08 07:05:00;;;;;;;0.40;0.40;;;17.70;54.40;;;;;;4974210;28;20201;-56
2022/06/08 07:07:31;;;;;;;0.52;0.52;;;17.70;54.50;;;;;;4992111;28;20579;-55
2022/06/08 07:10:01;;;;;;;0.70;0.70;;;17.70;54.40;;;;;;4991705;28;20201;-54
2022/06/08 07:12:32;;;;;;;0.52;0.45;;;17.70;54.40;;;;;;4992447;28;20225;-54
2022/06/08 07:15:03;;;;;;;0.70;0.70;;;17.70;54.50;;;;;;4992034;28;20193;-54
2022/06/08 07:17:35;;;;;;;0.70;0.70;;;17.70;54.50;;;;;;4992247;28;20245;-54
2022/06/08 07:20:06;;;;;;;1.17;0.55;;;17.70;54.50;;;;;;4991156;28;20197;-57
2022/06/08 07:22:37;;;;;;;1.33;0.80;;;17.70;54.50;;;;;;4992148;28;20205;-54
2022/06/08 07:25:10;;;;;;;1.13;0.77;;;17.70;54.50;;;;;;4991353;28;20724;-54
2022/06/08 07:27:41;;;;;;;0.90;0.60;;;17.60;54.50;;;;;;4991929;28;20217;-55
2022/06/08 07:30:13;;;;;;;0.82;0.60;;;17.60;54.50;;;;;;4992107;28;20194;-55
2022/06/08 07:32:46;;;;;;;0.60;0.60;;;17.60;54.50;;;;;;4992398;28;20288;-55
2022/06/08 07:35:17;;;;;;;0.60;0.60;;;17.60;54.50;;;;;;4992002;28;20213;-53
2022/06/08 07:37:48;;;;;;;0.60;0.60;;;17.60;54.50;;;;;;4992295;28;20221;-56
2022/06/08 07:40:19;;;;;;;0.50;0.47;;;17.60;54.50;;;;;;4992106;28;20646;-54
2022/06/08 07:42:49;;;;;;;0.88;0.60;;;17.60;54.50;;;;;;4989229;28;20237;-54
2022/06/08 07:45:20;;;;;;;1.10;0.70;;;17.60;54.50;;;;;;4992537;28;20197;-55
2022/06/08 07:50:40;;;;;;;0.98;0.52;;;17.60;54.60;;;;;;4992433;28;20680;-57
2022/06/08 07:53:11;;;;;;;1.27;0.75;;;17.60;54.60;;;;;;4992414;28;20225;-55
2022/06/08 07:55:42;;;;;;;0.73;0.70;;;17.60;54.60;;;;;;4992005;28;20281;-53
2022/06/08 07:58:13;;;;;;;0.70;0.70;;;17.60;54.60;;;;;;4991531;28;20224;-53
2022/06/08 08:00:47;;;;;;;0.73;0.73;;;17.60;54.60;;;;;;4991131;28;20201;-54
2022/06/08 08:03:20;;;;;;;0.82;0.80;;;17.60;54.60;;;;;;4992104;28;20204;-56
2022/06/08 08:05:51;;;;;;;0.80;0.60;;;17.60;54.60;;;;;;4991624;28;20198;-54
2022/06/08 08:08:22;;;;;;;0.63;0.52;;;17.60;54.60;;;;;;4992090;28;20279;-54
2022/06/08 08:10:53;;;;;;;0.98;0.70;;;17.60;54.60;;;;;;4992044;28;20289;-55
2022/06/08 08:13:23;;;;;;;0.75;0.70;;;17.60;54.70;;;;;;4991642;28;20229;-54
2022/06/08 08:15:54;;;;;;;0.63;0.63;;;17.50;54.60;;;;;;4991156;28;20566;-54
2022/06/08 08:18:26;;;;;;;0.70;0.60;;;17.50;54.60;;;;;;4991428;28;20240;-56
2022/06/08 08:20:57;;;;;;;0.88;0.68;;;17.50;54.60;;;;;;4990940;28;20201;-55
2022/06/08 08:23:28;;;;;;;0.95;0.73;;;17.50;54.60;;;;;;4991392;28;20197;-54
2022/06/08 08:25:58;;;;;;;0.80;0.75;;;17.50;54.60;;;;;;4991154;28;20201;-55
2022/06/08 08:28:29;;;;;;;0.90;0.75;;;17.50;54.60;;;;;;4991576;28;20218;-55
2022/06/08 08:31:00;;;;;;;0.57;0.57;;;17.50;54.60;;;;;;4992033;28;20609;-55
2022/06/08 08:33:32;;;;;;;0.75;0.70;;;17.50;54.70;;;;;;4991916;28;20226;-56
2022/06/08 08:36:03;;;;;;;1.17;0.90;;;17.50;54.80;;;;;;4991246;28;20202;-55
2022/06/08 08:38:34;;;;;;;1.05;0.80;;;17.50;54.80;;;;;;4991700;28;20216;-57
2022/06/08 08:42:20;;;;;;;1.63;0.93;;;17.50;54.80;;;;;;4991409;28;20653;-56
2022/06/08 08:43:57;;;;;;;0.90;0.70;;;17.50;54.90;;;;;;4991290;28;20216;-55
2022/06/08 08:46:39;;;;;;;0.90;0.82;;;17.50;55.00;;;;;;4991646;28;20203;-56
2022/06/08 08:49:21;;;;;;;1.65;0.85;;;17.50;55.10;;;;;;4991580;28;20205;-57
2022/06/08 08:52:00;;;;;;;1.25;0.80;;;17.50;55.10;;;;;;4991305;28;20206;-55
2022/06/08 08:54:34;;;;;;;0.90;0.80;;;17.50;55.10;;;;;;4991411;28;20315;-58
2022/06/08 08:57:18;;;;;;;1.75;1.10;;;17.40;55.10;;;;;;4991164;28;20256;-54
2022/06/08 08:59:51;;;;;;;1.27;0.93;;;17.40;55.10;;;;;;4991455;28;20202;-55
2022/06/08 09:05:15;;;;;;;0.88;0.60;;;17.40;55.10;;;;;;4984363;28;20201;-57
2022/06/08 09:07:46;;;;;;;0.90;0.80;;;17.40;55.10;;;;;;4987352;28;20217;-58
2022/06/08 09:10:20;;;;;;;1.38;0.82;;;17.40;55.10;;;;;;4990629;28;20252;-55
2022/06/08 09:12:52;;;;;;;0.70;0.70;;;17.40;55.20;;;;;;4991057;28;20193;-55
2022/06/08 09:15:50;;;;;;;1.70;0.90;;;17.40;55.20;;;;;;4994471;28;20205;-55
2022/06/08 09:18:36;;;;;;;0.95;0.70;;;17.30;55.10;;;;;;4974376;28;20237;-57
2022/06/08 09:21:31;;;;;;;1.17;0.70;;;17.40;55.30;;;;;;4974050;28;20198;-57
2022/06/08 09:24:04;;;;;;;1.77;1.10;;;17.30;55.20;;;;;;4983736;28;20252;-57
2022/06/08 09:26:39;;;;;;;1.50;0.70;;;17.30;55.20;;;;;;4994292;28;20293;-56
2022/06/08 09:29:18;;;;;;;1.88;0.90;;;17.30;55.20;;;;;;4993923;28;20780;-55
2022/06/08 09:31:50;;;;;;;1.15;0.90;;;17.30;55.30;;;;;;4994020;28;20198;-54
2022/06/08 09:34:24;;;;;;;1.27;0.95;;;17.30;55.30;;;;;;4993140;28;20582;-58
2022/06/08 09:37:13;;;;;;;1.25;0.77;;;17.30;55.30;;;;;;4993580;28;20733;-56
2022/06/08 09:39:46;;;;;;;0.93;0.80;;;17.30;55.30;;;;;;4993882;28;20194;-54
2022/06/08 09:42:47;;;;;;;0.90;0.70;;;17.30;55.30;;;;;;4990698;28;20210;-55
2022/06/08 09:45:32;;;;;;;0.80;0.70;;;17.30;55.30;;;;;;4967747;28;20725;-56
2022/06/08 09:51:28;;;;;;;0.65;0.65;;;17.30;55.30;;;;;;4974174;28;20325;-54
2022/06/08 09:54:13;;;;;;;1.00;0.80;;;17.20;55.30;;;;;;4973266;28;20609;-55
2022/06/08 09:56:56;;;;;;;1.00;0.80;;;17.20;55.30;;;;;;4973894;28;20269;-57
2022/06/08 09:59:44;;;;;;;0.70;0.70;;;17.20;55.30;;;;;;4974151;28;20206;-57
2022/06/08 10:02:24;;;;;;;0.70;0.68;;;17.20;55.30;;;;;;4993309;28;20201;-57
2022/06/08 10:05:19;;;;;;;0.65;0.65;;;17.20;55.40;;;;;;4993234;28;20197;-58
2022/06/08 10:07:54;;;;;;;0.60;0.55;;;17.20;55.40;;;;;;4993006;28;20697;-57
2022/06/08 10:10:33;;;;;;;0.80;0.75;;;17.20;55.40;;;;;;4993136;28;20196;-57
2022/06/08 10:13:10;;;;;;;0.73;0.73;;;17.20;55.50;;;;;;4993353;28;20204;-57
2022/06/08 10:15:46;;;;;;;0.80;0.70;;;17.20;55.50;;;;;;4993518;28;20204;-57
2022/06/08 10:18:21;;;;;;;1.15;0.80;;;17.10;55.50;;;;;;4993491;28;20232;-59
2022/06/08 10:20:55;;;;;;;0.65;0.57;;;17.10;55.50;;;;;;4991854;28;20205;-56
2022/06/08 10:23:34;;;;;;;0.95;0.70;;;17.10;55.50;;;;;;4992467;28;20297;-56
2022/06/08 10:26:14;;;;;;;0.90;0.70;;;17.10;55.50;;;;;;4990763;28;20665;-56
2022/06/08 10:28:47;;;;;;;0.73;0.73;;;17.10;55.50;;;;;;4972718;28;20485;-57
2022/06/08 10:31:23;;;;;;;0.95;0.80;;;17.10;55.50;;;;;;4972804;28;20209;-57
2022/06/08 10:34:01;;;;;;;0.47;0.47;;;17.10;55.50;;;;;;4973461;28;20701;-56
2022/06/08 10:36:33;;;;;;;0.98;0.90;;;17.10;55.50;;;;;;4986645;28;20197;-57
2022/06/08 10:39:08;;;;;;;0.80;0.80;;;17.10;55.50;;;;;;4992485;28;20681;-56
2022/06/08 10:44:50;;;;;;;1.08;0.80;;;17.10;55.50;;;;;;4992222;28;20209;-56
2022/06/08 10:47:30;;;;;;;1.38;0.85;;;17.10;55.50;;;;;;4992086;28;20303;-58
2022/06/08 10:50:24;;;;;;;0.70;0.70;;;17.10;55.50;;;;;;4992910;28;20205;-55
2022/06/08 10:54:52;;;;;;;0.68;0.60;;;17.10;55.60;;;;;;4991740;28;20201;-54
2022/06/08 10:55:47;;;;;;;0.88;0.75;;;17.00;55.50;;;;;;4992383;28;20194;-57
2022/06/08 10:58:22;;;;;;;0.70;0.70;;;17.00;55.50;;;;;;4985124;28;20654;-54
2022/06/08 11:01:08;;;;;;;0.65;0.55;;;17.00;55.60;;;;;;4983619;28;20247;-56
2022/06/08 11:03:54;;;;;;;1.23;0.70;;;17.00;55.60;;;;;;4991283;28;20197;-56
2022/06/08 11:07:01;;;;;;;0.60;0.60;;;17.00;55.60;;;;;;4990949;28;20233;-54
2022/06/08 11:09:54;;;;;;;0.90;0.90;;;17.00;55.60;;;;;;4912547;29;20212;-53
2022/06/08 11:12:39;;;;;;;1.15;0.90;;;17.00;55.60;;;;;;4972791;28;20198;-54
2022/06/08 11:15:23;;;;;;;1.00;0.70;;;16.90;55.60;;;;;;4972406;28;20230;-55
2022/06/08 11:18:00;;;;;;;1.55;0.77;;;16.90;55.60;;;;;;4972751;28;20241;-56
2022/06/08 11:20:38;;;;;;;1.10;0.77;;;16.90;55.60;;;;;;4972777;28;20297;-54
2022/06/08 11:23:15;;;;;;;0.60;0.60;;;16.90;55.60;;;;;;4972744;28;20206;-54
2022/06/08 11:25:53;;;;;;;0.98;0.80;;;16.90;55.60;;;;;;4972549;28;20581;-55
2022/06/08 11:28:39;;;;;;;0.85;0.70;;;16.90;55.60;;;;;;4972872;28;20596;-55
2022/06/08 11:31:35;;;;;;;0.57;0.57;;;16.90;55.60;;;;;;4971777;28;20297;-54
2022/06/08 11:34:26;;;;;;;1.10;0.80;;;16.90;55.60;;;;;;4972832;28;20232;-54
2022/06/08 11:37:13;;;;;;;1.30;0.77;;;16.90;55.60;;;;;;4989202;28;20736;-55
2022/06/08 11:39:53;;;;;;;0.82;0.77;;;16.90;55.60;;;;;;4974790;28;20204;-54
2022/06/08 11:42:31;;;;;;;0.80;0.57;;;16.90;55.60;;;;;;4972351;28;20229;-53
2022/06/08 11:45:09;;;;;;;0.98;0.70;;;16.80;55.60;;;;;;4972218;28;20218;-55
2022/06/08 11:47:55;;;;;;;0.95;0.70;;;16.80;55.60;;;;;;4981574;28;20210;-56
2022/06/08 11:50:32;;;;;;;0.73;0.68;;;16.80;55.60;;;;;;4991173;28;20193;-54
2022/06/08 11:53:05;;;;;;;0.90;0.57;;;16.80;55.60;;;;;;4984233;28;20194;-53
2022/06/08 11:55:45;;;;;;;1.15;0.80;;;16.80;55.60;;;;;;4980764;28;20220;-53
2022/06/08 11:58:22;;;;;;;0.60;0.60;;;16.80;55.70;;;;;;4991452;28;20213;-54
2022/06/08 12:00:57;;;;;;;0.70;0.57;;;16.80;55.70;;;;;;4978675;28;20757;-55
2022/06/08 12:03:42;;;;;;;0.75;0.60;;;16.80;55.70;;;;;;4971334;28;20197;-56
2022/06/08 12:06:23;;;;;;;0.60;0.50;;;16.80;55.70;;;;;;4982837;28;20212;-54
2022/06/08 12:08:56;;;;;;;0.80;0.70;;;16.80;55.80;;;;;;4991091;28;20248;-54
2022/06/08 12:11:30;;;;;;;0.70;0.70;;;16.80;55.80;;;;;;4986035;28;20205;-54
2022/06/08 12:14:04;;;;;;;0.60;0.52;;;16.80;55.80;;;;;;4991138;28;20221;-56
2022/06/08 12:16:37;;;;;;;0.73;0.70;;;16.70;55.70;;;;;;4987697;28;20231;-56
2022/06/08 12:19:17;;;;;;;0.60;0.50;;;16.80;55.80;;;;;;4988915;28;20248;-56
2022/06/08 12:21:49;;;;;;;0.70;0.70;;;16.70;55.70;;;;;;4989099;28;20248;-55
2022/06/08 12:24:28;;;;;;;0.65;0.65;;;16.70;55.70;;;;;;4989216;28;20216;-55
2022/06/08 12:27:15;;;;;;;0.60;0.60;;;16.70;55.70;;;;;;4969440;28;20874;-56
2022/06/08 12:29:58;;;;;;;0.88;0.70;;;16.70;55.70;;;;;;4970189;28;20230;-56
2022/06/08 12:32:35;;;;;;;0.55;0.50;;;16.70;55.70;;;;;;4969840;28;20201;-56
2022/06/08 12:35:25;;;;;;;0.60;0.57;;;16.70;55.70;;;;;;4973269;28;20237;-55
2022/06/08 12:38:16;;;;;;;0.82;0.70;;;16.70;55.70;;;;;;4970056;28;20217;-56
2022/06/08 12:41:01;;;;;;;1.42;0.70;;;16.70;55.70;;;;;;4980288;28;20204;-58
2022/06/08 12:43:40;;;;;;;0.50;0.50;;;16.70;55.70;;;;;;4973013;28;20198;-59
2022/06/08 12:46:31;;;;;;;0.60;0.60;;;16.70;55.70;;;;;;4969061;28;20202;-57
2022/06/08 12:49:17;;;;;;;0.73;0.60;;;16.60;55.70;;;;;;4973960;28;20198;-56
2022/06/08 12:51:54;;;;;;;0.70;0.60;;;16.70;55.70;;;;;;4974005;28;20210;-56
2022/06/08 12:54:29;;;;;;;0.55;0.50;;;16.70;55.80;;;;;;4973773;28;20222;-56
2022/06/08 12:57:13;;;;;;;0.65;0.40;;;16.60;55.70;;;;;;4973856;28;20221;-56
2022/06/08 12:59:44;;;;;;;1.00;0.70;;;16.60;55.70;;;;;;4973381;28;20198;-56
2022/06/08 13:02:21;;;;;;;1.10;0.77;;;16.60;55.70;;;;;;4990429;28;20205;-56
2022/06/08 13:04:53;;;;;;;0.77;0.60;;;16.60;55.70;;;;;;4992663;28;20193;-56
2022/06/08 13:07:27;;;;;;;1.15;0.75;;;16.60;55.70;;;;;;4992267;28;20221;-56
2022/06/08 13:09:58;;;;;;;0.50;0.50;;;16.60;55.70;;;;;;4976112;28;20209;-55
2022/06/08 13:12:33;;;;;;;0.95;0.52;;;16.60;55.70;;;;;;4993255;28;20585;-56
2022/06/08 13:15:04;;;;;;;0.30;0.30;;;16.60;55.70;;;;;;4993316;28;20260;-57
2022/06/08 13:17:34;;;;;;;0.60;0.60;;;16.60;55.70;;;;;;4993594;28;20708;-57
2022/06/08 13:20:05;;;;;;;1.05;0.60;;;16.60;55.70;;;;;;4993608;28;20204;-57
2022/06/08 13:22:38;;;;;;;0.60;0.60;;;16.60;55.70;;;;;;4993368;28;20551;-57
2022/06/08 13:25:09;;;;;;;0.50;0.50;;;16.60;55.70;;;;;;4993351;28;20200;-56
2022/06/08 13:27:40;;;;;;;0.80;0.60;;;16.60;55.70;;;;;;4992938;28;20226;-57
2022/06/08 13:30:17;;;;;;;0.60;0.60;;;16.60;55.60;;;;;;4992556;28;20217;-57
2022/06/08 13:32:49;;;;;;;0.57;0.50;;;16.60;55.70;;;;;;4992736;28;20209;-57
2022/06/08 13:35:21;;;;;;;0.88;0.70;;;16.60;55.70;;;;;;4992811;28;20720;-57
2022/06/08 13:37:54;;;;;;;0.70;0.55;;;16.50;55.60;;;;;;4992394;28;20221;-57
2022/06/08 13:40:27;;;;;;;0.55;0.55;;;16.50;55.70;;;;;;4992506;28;20198;-56
2022/06/08 13:42:59;;;;;;;0.50;0.50;;;16.50;55.70;;;;;;4992218;28;20193;-57
2022/06/08 13:45:34;;;;;;;0.47;0.47;;;16.50;55.70;;;;;;4989109;28;20194;-57